Time;durP1;ratioP1;P1;durP2;ratioP2;P2;SDS_P1;SDS_P2;PMS_P1;PMS_P2;Temp;Humidity;BMP_temperature;BMP_pressure;BME280_temperature;BME280_humidity;BME280_pressure;Samples;Min_cycle;Max_cycle;Signal;HPM_P1;HPM_P2
2023/10/28 00:01:22;;;;;;;0.15;0.15;;;;;;;26.82;39.10;97068.78;7396911;19;20455;-57
2023/10/28 00:03:48;;;;;;;0.35;0.32;;;;;;;27.23;38.53;97065.31;7396730;19;20010;-57
2023/10/28 00:06:15;;;;;;;0.10;0.10;;;;;;;27.76;37.61;97057.28;7398748;19;20007;-57
2023/10/28 00:08:41;;;;;;;0.90;0.57;;;;;;;27.39;37.71;97054.50;7397043;19;20006;-57
2023/10/28 00:11:08;;;;;;;0.82;0.82;;;;;;;25.44;39.60;97059.47;7396918;19;20015;-57
2023/10/28 00:13:34;;;;;;;0.70;0.68;;;;;;;24.77;40.63;97047.16;7395613;19;20578;-57
2023/10/28 00:16:00;;;;;;;0.50;0.47;;;;;;;27.66;36.77;97042.59;7396205;19;20033;-57
2023/10/28 00:18:26;;;;;;;0.85;0.47;;;;;;;27.15;37.32;97047.88;7395501;19;20011;-57
2023/10/28 00:20:52;;;;;;;0.20;0.20;;;;;;;27.33;36.66;97045.69;7396851;19;20038;-57
2023/10/28 00:23:18;;;;;;;1.10;0.20;;;;;;;25.36;39.06;97038.41;7393990;19;20020;-57
2023/10/28 00:25:45;;;;;;;0.10;0.10;;;;;;;23.63;40.84;97042.22;7399720;19;20019;-57
2023/10/28 00:28:11;;;;;;;0.40;0.35;;;;;;;23.98;40.72;97042.59;7393708;19;20010;-57
2023/10/28 00:30:39;;;;;;;0.55;0.50;;;;;;;23.56;41.36;97031.94;7391526;19;20009;-57
2023/10/28 00:33:05;;;;;;;0.65;0.65;;;;;;;25.98;38.31;97028.94;7392320;19;20010;-57
2023/10/28 00:35:31;;;;;;;0.40;0.30;;;;;;;24.58;40.22;97035.53;7395812;19;20351;-57
2023/10/28 00:37:58;;;;;;;0.35;0.35;;;;;;;23.86;41.65;97030.63;7399250;19;20039;-57
2023/10/28 00:40:31;;;;;;;0.50;0.50;;;;;;;23.97;41.23;97041.09;7392922;19;20010;-57
2023/10/28 00:42:58;;;;;;;0.32;0.17;;;;;;;23.43;42.36;97046.16;7395634;19;20014;-57
2023/10/28 00:45:24;;;;;;;0.52;0.52;;;;;;;24.46;41.17;97029.25;7397436;19;20467;-57
2023/10/28 00:47:53;;;;;;;0.17;0.17;;;;;;;23.76;42.16;97027.25;7395119;19;20018;-57
2023/10/28 00:50:23;;;;;;;1.10;0.82;;;;;;;23.23;43.52;97020.25;7395446;19;20018;-57
2023/10/28 00:52:54;;;;;;;0.20;0.20;;;;;;;23.46;43.24;97014.38;7393939;19;20018;-57
2023/10/28 00:55:22;;;;;;;0.65;0.43;;;;;;;23.48;42.97;97008.03;7397643;19;20014;-57
2023/10/28 00:57:48;;;;;;;0.30;0.30;;;;;;;23.72;43.07;96998.66;7394418;19;20014;-57
2023/10/28 01:00:15;;;;;;;0.63;0.60;;;;;;;24.81;41.70;97009.59;7391328;19;20018;-57
2023/10/28 01:02:42;;;;;;;4.68;0.85;;;;;;;24.65;42.19;97003.13;7395068;19;20017;-57
2023/10/28 01:05:11;;;;;;;0.65;0.32;;;;;;;24.88;42.44;96997.09;7398581;19;20014;-57
2023/10/28 01:07:45;;;;;;;0.40;0.38;;;;;;;25.83;41.11;96992.69;7397364;19;20019;-57
2023/10/28 01:10:12;;;;;;;2.15;0.60;;;;;;;26.10;41.01;96992.38;7394504;19;20011;-57
2023/10/28 01:12:38;;;;;;;0.10;0.10;;;;;;;26.21;41.06;96985.69;7393273;19;20015;-57
2023/10/28 01:15:05;;;;;;;0.32;0.20;;;;;;;26.35;40.69;96991.97;7395608;19;20022;-57
2023/10/28 01:17:32;;;;;;;0.52;0.52;;;;;;;28.81;38.24;96980.53;7392958;19;20018;-57
2023/10/28 01:19:58;;;;;;;0.47;0.45;;;;;;;26.66;40.26;96988.88;7393443;19;20640;-57
2023/10/28 01:22:24;;;;;;;0.52;0.35;;;;;;;24.71;42.87;96983.50;7393850;19;20347;-57
2023/10/28 01:24:51;;;;;;;4.78;0.68;;;;;;;24.46;43.43;96986.56;7396706;19;20010;-57
2023/10/28 01:27:18;;;;;;;0.82;0.82;;;;;;;24.59;43.54;96982.91;7392312;19;20018;-57
2023/10/28 01:29:48;;;;;;;0.28;0.20;;;;;;;25.97;41.66;96987.53;7393586;19;20038;-57
2023/10/28 01:32:17;;;;;;;0.52;0.25;;;;;;;25.82;41.43;96979.78;7392253;19;20015;-57
2023/10/28 01:34:50;;;;;;;1.20;0.10;;;;;;;24.85;43.22;96981.28;7396515;19;20082;-57
2023/10/28 01:37:17;;;;;;;0.30;0.30;;;;;;;27.37;40.60;96977.25;7395896;19;20328;-57
2023/10/28 01:39:50;;;;;;;0.35;0.20;;;;;;;27.55;39.21;96975.75;7391357;19;20038;-57
2023/10/28 01:42:16;;;;;;;0.13;0.13;;;;;;;27.95;38.91;96967.81;7394090;19;20104;-57
2023/10/28 01:44:43;;;;;;;0.88;0.82;;;;;;;29.43;36.96;96967.28;7395453;19;20010;-57
2023/10/28 01:47:09;;;;;;;0.45;0.40;;;;;;;28.06;38.62;96971.75;7394514;19;20100;-57
2023/10/28 01:49:36;;;;;;;2.17;1.45;;;;;;;28.84;37.79;96967.72;7393711;19;20010;-57
2023/10/28 01:52:03;;;;;;;0.20;0.20;;;;;;;29.53;37.25;96965.41;7393800;19;20015;-57
2023/10/28 01:54:30;;;;;;;0.60;0.40;;;;;;;31.71;34.70;96964.53;7397055;19;20025;-57
2023/10/28 01:57:00;;;;;;;0.65;0.55;;;;;;;33.53;33.21;96957.84;7394343;19;20010;-57
2023/10/28 01:59:26;;;;;;;0.10;0.10;;;;;;;32.14;33.86;96961.72;7390678;19;20035;-57
2023/10/28 02:01:53;;;;;;;1.38;0.40;;;;;;;32.15;34.15;96959.56;7393569;19;20076;-57
2023/10/28 02:04:19;;;;;;;0.47;0.43;;;;;;;32.45;33.63;96959.28;7392657;19;20037;-57
2023/10/28 02:06:46;;;;;;;0.32;0.32;;;;;;;32.32;33.60;96955.50;7396260;19;20014;-57
2023/10/28 02:09:13;;;;;;;0.38;0.38;;;;;;;30.59;35.62;96960.84;7393694;19;20459;-57
2023/10/28 02:11:39;;;;;;;0.63;0.63;;;;;;;31.45;34.65;96961.22;7392270;19;20438;-57
2023/10/28 02:14:09;;;;;;;0.43;0.32;;;;;;;32.61;33.18;96962.44;7393148;19;20013;-57
2023/10/28 02:16:38;;;;;;;0.20;0.20;;;;;;;32.27;33.83;96959.03;7391412;19;20074;-57
2023/10/28 02:19:05;;;;;;;0.15;0.15;;;;;;;30.69;35.16;96955.28;7392400;19;20369;-57
2023/10/28 02:21:32;;;;;;;0.20;0.10;;;;;;;30.09;35.76;96959.63;7390976;19;20019;-57
2023/10/28 02:24:00;;;;;;;0.75;0.47;;;;;;;28.66;37.28;96952.88;7393370;19;20011;-57
2023/10/28 02:26:26;;;;;;;0.90;0.47;;;;;;;29.15;37.29;96944.28;7390519;19;20018;-57
2023/10/28 02:28:53;;;;;;;0.40;0.40;;;;;;;27.70;38.25;96939.78;7389502;19;20006;-57
2023/10/28 02:31:19;;;;;;;0.57;0.45;;;;;;;28.36;37.87;96933.38;7387070;19;20014;-57
2023/10/28 02:33:45;;;;;;;1.27;0.65;;;;;;;28.89;37.71;96934.94;7387832;19;20011;-57
2023/10/28 02:36:12;;;;;;;0.35;0.30;;;;;;;28.90;37.24;96927.78;7392874;19;20014;-57
2023/10/28 02:38:40;;;;;;;0.90;0.35;;;;;;;30.13;36.31;96926.00;7387357;19;20018;-57
2023/10/28 02:41:07;;;;;;;0.20;0.20;;;;;;;28.79;37.41;96926.03;7388774;19;20021;-57
2023/10/28 02:43:39;;;;;;;0.30;0.28;;;;;;;27.93;38.52;96924.81;7388264;19;20019;-57
2023/10/28 02:46:06;;;;;;;0.22;0.15;;;;;;;29.23;37.40;96921.56;7396273;19;20030;-57
2023/10/28 02:48:32;;;;;;;0.30;0.20;;;;;;;30.94;35.33;96917.06;7391814;19;20018;-57
2023/10/28 02:51:06;;;;;;;0.15;0.15;;;;;;;31.15;34.80;96921.06;7390640;19;20017;-57
2023/10/28 02:53:33;;;;;;;0.65;0.65;;;;;;;31.45;34.65;96920.94;7393617;19;20085;-57
2023/10/28 02:56:04;;;;;;;2.05;0.38;;;;;;;31.57;34.34;96924.75;7395938;19;20019;-57
2023/10/28 02:58:31;;;;;;;0.10;0.10;;;;;;;29.87;35.65;96923.25;7391240;19;20468;-57
2023/10/28 03:01:06;;;;;;;0.73;0.30;;;;;;;28.80;37.07;96924.66;7390719;19;20046;-57
2023/10/28 03:03:32;;;;;;;0.47;0.30;;;;;;;29.72;36.16;96918.53;7390900;19;20035;-57
2023/10/28 03:05:58;;;;;;;0.85;0.57;;;;;;;29.53;35.98;96913.03;7392214;19;20022;-57
2023/10/28 03:08:24;;;;;;;0.30;0.25;;;;;;;29.66;36.53;96909.78;7395893;19;20014;-57
2023/10/28 03:10:51;;;;;;;0.63;0.25;;;;;;;31.05;35.00;96915.13;7391318;19;20352;-57
2023/10/28 03:13:17;;;;;;;4.38;1.02;;;;;;;31.37;34.26;96918.59;7390939;19;20337;-57
2023/10/28 03:15:46;;;;;;;2.17;1.02;;;;;;;31.55;34.06;96918.22;7388977;19;20474;-57
2023/10/28 03:18:16;;;;;;;0.30;0.30;;;;;;;31.65;33.62;96919.13;7391685;19;20017;-57
2023/10/28 03:20:42;;;;;;;14.70;0.90;;;;;;;30.95;34.41;96920.69;7395604;19;20028;-57
2023/10/28 03:23:08;;;;;;;0.28;0.20;;;;;;;28.68;36.70;96927.16;7396027;19;20028;-57
2023/10/28 03:25:35;;;;;;;0.25;0.25;;;;;;;28.63;37.23;96920.56;7396433;19;20340;-57
2023/10/28 03:28:02;;;;;;;1.38;0.50;;;;;;;28.68;36.91;96927.88;7396928;19;20388;-57
2023/10/28 03:30:28;;;;;;;0.60;0.50;;;;;;;28.25;36.93;96920.13;7397019;19;20019;-57
2023/10/28 03:32:54;;;;;;;0.45;0.32;;;;;;;27.40;38.36;96927.31;7400922;19;20014;-57
2023/10/28 03:35:20;;;;;;;0.10;0.10;;;;;;;27.88;37.69;96923.22;7397668;19;20066;-57
2023/10/28 03:37:47;;;;;;;0.57;0.38;;;;;;;28.17;37.36;96928.47;7400994;19;20078;-57
2023/10/28 03:40:14;;;;;;;0.75;0.70;;;;;;;28.08;37.44;96929.63;7395785;19;20014;-57
2023/10/28 03:42:40;;;;;;;0.15;0.15;;;;;;;27.24;38.27;96924.63;7401127;19;20041;-57
2023/10/28 03:45:09;;;;;;;0.63;0.63;;;;;;;26.74;39.06;96931.41;7397292;19;20014;-57
2023/10/28 03:47:36;;;;;;;0.20;0.20;;;;;;;26.58;39.36;96930.75;7397159;19;20018;-57
2023/10/28 03:50:02;;;;;;;0.30;0.20;;;;;;;28.63;37.66;96929.16;7397025;19;20527;-57
2023/10/28 03:52:28;;;;;;;1.27;0.45;;;;;;;28.61;37.09;96925.53;7399454;19;20014;-57
2023/10/28 03:54:55;;;;;;;6.43;0.43;;;;;;;28.50;37.95;96933.78;7401797;19;20039;-57
2023/10/28 03:57:21;;;;;;;0.35;0.35;;;;;;;28.13;38.20;96928.31;7397160;19;20003;-57
2023/10/28 03:59:49;;;;;;;0.95;0.65;;;;;;;27.45;38.92;96920.34;7395665;19;20024;-57
2023/10/28 04:02:19;;;;;;;1.02;0.60;;;;;;;28.05;37.94;96927.34;7398795;19;20041;-57
2023/10/28 04:04:45;;;;;;;0.20;0.20;;;;;;;28.32;37.68;96929.63;7396191;19;20018;-57
2023/10/28 04:07:11;;;;;;;0.13;0.13;;;;;;;28.89;37.14;96926.34;7399245;19;20471;-57
2023/10/28 04:09:37;;;;;;;1.52;1.13;;;;;;;28.50;37.51;96916.59;7396576;19;20089;-57
2023/10/28 04:12:05;;;;;;;0.63;0.50;;;;;;;28.89;36.84;96912.00;7397650;19;20047;-57
2023/10/28 04:14:33;;;;;;;7.22;1.75;;;;;;;28.78;37.38;96913.88;7399101;19;20018;-57
2023/10/28 04:16:59;;;;;;;2.15;0.50;;;;;;;29.06;36.73;96913.91;7396339;19;20066;-57
2023/10/28 04:19:25;;;;;;;3.95;0.93;;;;;;;28.79;37.11;96908.84;7395298;19;20010;-57
2023/10/28 04:21:51;;;;;;;3.75;0.57;;;;;;;29.66;36.48;96915.53;7395471;19;20487;-57
2023/10/28 04:24:18;;;;;;;0.65;0.20;;;;;;;28.06;37.80;96914.50;7397430;19;20002;-57
2023/10/28 04:26:44;;;;;;;0.17;0.17;;;;;;;29.03;37.22;96918.13;7396938;19;20031;-57
2023/10/28 04:29:10;;;;;;;1.35;0.95;;;;;;;31.47;34.93;96915.94;7397398;19;20021;-57
2023/10/28 04:31:36;;;;;;;7.72;2.08;;;;;;;33.09;32.64;96913.34;7396061;19;20066;-57
2023/10/28 04:34:03;;;;;;;0.40;0.40;;;;;;;31.46;34.40;96919.50;7395432;19;20049;-57
2023/10/28 04:36:29;;;;;;;0.47;0.47;;;;;;;30.32;35.38;96913.56;7397769;19;20018;-57
2023/10/28 04:38:55;;;;;;;1.23;0.40;;;;;;;32.34;33.37;96909.44;7395482;19;20022;-57
2023/10/28 04:41:21;;;;;;;0.40;0.40;;;;;;;33.90;31.78;96909.81;7394532;19;20022;-57
2023/10/28 04:43:48;;;;;;;0.35;0.35;;;;;;;34.93;30.77;96898.94;7395045;19;20078;-57
2023/10/28 04:46:15;;;;;;;0.15;0.15;;;;;;;33.47;31.92;96902.19;7400179;19;20015;-57
2023/10/28 04:48:46;;;;;;;1.08;0.63;;;;;;;32.04;33.08;96903.97;7394794;19;20014;-57
2023/10/28 04:51:16;;;;;;;0.20;0.20;;;;;;;32.94;32.29;96905.94;7396467;19;20096;-57
2023/10/28 04:53:42;;;;;;;0.35;0.20;;;;;;;33.97;31.40;96899.06;7397812;19;20084;-57
2023/10/28 04:56:08;;;;;;;1.10;1.00;;;;;;;33.92;31.31;96903.34;7399538;19;20010;-57
2023/10/28 04:58:35;;;;;;;1.00;0.68;;;;;;;33.96;31.26;96898.31;7394844;19;20066;-57
2023/10/28 05:01:01;;;;;;;0.80;0.52;;;;;;;32.39;32.29;96907.34;7395735;19;20017;-57
2023/10/28 05:03:27;;;;;;;0.28;0.28;;;;;;;31.10;33.96;96905.16;7395034;19;20014;-57
2023/10/28 05:05:53;;;;;;;0.75;0.68;;;;;;;31.23;33.77;96907.56;7399709;19;20015;-57
2023/10/28 05:08:20;;;;;;;0.80;0.60;;;;;;;31.34;33.60;96912.06;7394965;19;20023;-57
2023/10/28 05:10:46;;;;;;;0.30;0.30;;;;;;;31.17;33.59;96906.72;7394828;19;20022;-57
2023/10/28 05:13:13;;;;;;;0.20;0.20;;;;;;;31.94;33.03;96906.69;7394256;19;20015;-57
2023/10/28 05:15:39;;;;;;;2.72;0.57;;;;;;;33.21;32.02;96899.78;7397921;19;20015;-57
2023/10/28 05:18:05;;;;;;;0.25;0.17;;;;;;;33.60;31.49;96895.13;7395169;19;20382;-57
2023/10/28 05:20:35;;;;;;;2.25;0.55;;;;;;;33.16;31.63;96906.94;7393923;19;20018;-57
2023/10/28 05:23:01;;;;;;;0.57;0.47;;;;;;;32.34;32.81;96906.56;7395931;19;20091;-57
2023/10/28 05:25:28;;;;;;;0.57;0.20;;;;;;;32.63;32.54;96902.69;7398271;19;20017;-57
2023/10/28 05:27:54;;;;;;;0.52;0.45;;;;;;;32.07;32.59;96913.38;7394564;19;20002;-57
2023/10/28 05:30:20;;;;;;;0.65;0.65;;;;;;;31.52;33.37;96903.06;7394677;19;20088;-57
2023/10/28 05:32:47;;;;;;;0.20;0.10;;;;;;;30.86;34.31;96910.41;7395391;19;20039;-57
2023/10/28 05:35:13;;;;;;;0.25;0.20;;;;;;;31.56;33.46;96908.16;7396882;19;20007;-57
2023/10/28 05:37:39;;;;;;;0.40;0.40;;;;;;;32.67;32.86;96891.19;7398085;19;20010;-57
2023/10/28 05:40:10;;;;;;;2.50;0.55;;;;;;;32.17;32.36;96907.75;7393001;19;20333;-57
2023/10/28 05:42:37;;;;;;;2.10;1.45;;;;;;;31.09;34.06;96898.69;7394702;19;20409;-57
2023/10/28 05:45:04;;;;;;;0.10;0.10;;;;;;;32.59;32.51;96896.88;7394311;19;20448;-57
2023/10/28 05:47:30;;;;;;;0.85;0.28;;;;;;;31.57;33.09;96904.63;7394235;19;20018;-57
2023/10/28 05:49:57;;;;;;;0.90;0.40;;;;;;;31.32;33.81;96896.94;7393936;19;20113;-57
2023/10/28 05:52:23;;;;;;;0.43;0.35;;;;;;;33.77;31.30;96893.09;7394052;19;20022;-57
2023/10/28 05:54:49;;;;;;;1.20;0.28;;;;;;;32.65;32.12;96896.22;7397728;19;20110;-57
2023/10/28 05:57:15;;;;;;;0.52;0.52;;;;;;;31.16;33.93;96896.66;7393379;19;20022;-57
2023/10/28 05:59:41;;;;;;;0.13;0.13;;;;;;;31.47;33.53;96906.59;7391714;19;20876;-57
2023/10/28 06:02:08;;;;;;;0.55;0.55;;;;;;;32.63;32.88;96891.16;7393327;19;20463;-57
2023/10/28 06:04:34;;;;;;;0.75;0.30;;;;;;;33.29;31.83;96899.84;7394165;19;20070;-57
2023/10/28 06:07:00;;;;;;;0.13;0.13;;;;;;;32.81;32.12;96894.25;7397422;19;20070;-57
2023/10/28 06:09:26;;;;;;;0.28;0.28;;;;;;;32.38;32.76;96895.09;7397211;19;20018;-57
2023/10/28 06:11:54;;;;;;;0.10;0.00;;;;;;;31.47;33.44;96895.06;7393285;19;20464;-57
2023/10/28 06:14:21;;;;;;;0.20;0.20;;;;;;;30.84;33.95;96896.69;7392451;19;20007;-57
2023/10/28 06:16:49;;;;;;;0.20;0.20;;;;;;;30.20;35.25;96901.03;7390612;19;20018;-57
2023/10/28 06:19:15;;;;;;;0.20;0.20;;;;;;;29.48;35.51;96894.97;7392222;19;20074;-57
2023/10/28 06:21:42;;;;;;;0.30;0.30;;;;;;;31.04;34.41;96899.28;7393361;19;20014;-57
2023/10/28 06:24:08;;;;;;;0.68;0.32;;;;;;;32.48;32.73;96892.38;7392803;19;20010;-57
2023/10/28 06:26:34;;;;;;;0.32;0.32;;;;;;;32.83;32.33;96900.03;7392450;19;20377;-57
2023/10/28 06:29:00;;;;;;;8.50;0.65;;;;;;;32.76;32.34;96901.41;7392920;19;20052;-57
2023/10/28 06:31:26;;;;;;;0.35;0.35;;;;;;;32.84;32.72;96907.25;7392723;19;20536;-57
2023/10/28 06:33:53;;;;;;;2.83;0.32;;;;;;;32.17;33.02;96893.34;7391986;19;20006;-57
2023/10/28 06:36:19;;;;;;;0.65;0.30;;;;;;;31.18;33.64;96903.16;7393441;19;20014;-57
2023/10/28 06:38:45;;;;;;;0.15;0.15;;;;;;;30.96;34.12;96904.88;7391600;19;20506;-57
2023/10/28 06:41:11;;;;;;;6.57;0.85;;;;;;;29.45;35.53;96902.09;7393116;19;20043;-57
2023/10/28 06:43:37;;;;;;;0.60;0.52;;;;;;;31.24;34.22;96909.03;7394720;19;20600;-57
2023/10/28 06:46:04;;;;;;;0.10;0.10;;;;;;;31.56;33.90;96899.53;7392802;19;20011;-57
2023/10/28 06:48:30;;;;;;;0.10;0.10;;;;;;;32.22;33.19;96897.75;7391397;19;20011;-57
2023/10/28 06:50:57;;;;;;;3.72;0.40;;;;;;;31.85;33.35;96904.34;7392320;19;20053;-57
2023/10/28 06:53:23;;;;;;;0.13;0.13;;;;;;;31.78;33.31;96899.91;7392975;19;20074;-57
2023/10/28 06:55:49;;;;;;;1.00;0.43;;;;;;;31.90;33.58;96911.63;7395291;19;20031;-57
2023/10/28 06:58:15;;;;;;;0.22;0.22;;;;;;;31.80;33.43;96914.34;7397026;19;20010;-57
2023/10/28 07:00:41;;;;;;;0.22;0.22;;;;;;;31.80;33.58;96915.06;7396518;19;20015;-57
2023/10/28 07:03:08;;;;;;;0.50;0.50;;;;;;;32.13;33.23;96917.06;7399412;19;20011;-57
2023/10/28 07:05:34;;;;;;;0.75;0.38;;;;;;;31.99;33.44;96924.75;7398776;19;20070;-57
2023/10/28 07:08:00;;;;;;;0.30;0.30;;;;;;;32.23;33.16;96924.41;7401686;19;20018;-57
2023/10/28 07:10:27;;;;;;;0.10;0.10;;;;;;;30.83;34.53;96932.63;7398451;19;20479;-57
2023/10/28 07:12:53;;;;;;;0.15;0.08;;;;;;;29.75;35.88;96937.31;7400257;19;20006;-57
2023/10/28 07:15:19;;;;;;;0.57;0.43;;;;;;;28.77;37.12;96946.03;7401350;19;20014;-57
2023/10/28 07:17:45;;;;;;;0.50;0.20;;;;;;;28.94;36.92;96950.81;7402739;19;20010;-57
2023/10/28 07:20:12;;;;;;;0.10;0.10;;;;;;;28.65;37.54;96951.41;7395850;19;20014;-57
2023/10/28 07:22:38;;;;;;;2.45;0.50;;;;;;;28.25;37.75;96950.88;7396287;19;20347;-56
2023/10/28 07:25:06;;;;;;;0.22;0.22;;;;;;;28.65;37.45;96951.41;7397998;19;20030;-57
2023/10/28 07:27:32;;;;;;;0.10;0.08;;;;;;;28.68;37.85;96959.38;7398509;19;20329;-57
2023/10/28 07:29:59;;;;;;;0.30;0.30;;;;;;;29.23;37.01;96955.97;7398758;19;20014;-57
2023/10/28 07:32:25;;;;;;;4.10;0.40;;;;;;;28.54;38.00;96959.66;7396013;19;20021;-57
2023/10/28 07:34:51;;;;;;;0.47;0.47;;;;;;;28.95;37.70;96958.03;7396307;19;20021;-57
2023/10/28 07:37:17;;;;;;;0.60;0.57;;;;;;;28.58;37.69;96964.09;7400070;19;20470;-57
2023/10/28 07:39:44;;;;;;;3.70;1.50;;;;;;;28.47;37.83;96963.03;7399811;19;20006;-57
2023/10/28 07:42:10;;;;;;;0.43;0.43;;;;;;;28.79;37.93;96960.41;7400809;19;20018;-57
2023/10/28 07:44:37;;;;;;;0.20;0.10;;;;;;;28.82;38.12;96959.06;7398771;19;20398;-57
2023/10/28 07:47:03;;;;;;;9.57;1.05;;;;;;;29.01;37.42;96953.19;7400210;19;20135;-57
2023/10/28 07:49:29;;;;;;;0.10;0.10;;;;;;;28.88;37.91;96962.13;7400554;19;20041;-57
2023/10/28 07:51:55;;;;;;;0.47;0.47;;;;;;;30.20;36.89;96969.94;7396836;19;20042;-57
2023/10/28 07:54:22;;;;;;;0.30;0.28;;;;;;;29.17;37.47;96958.69;7399464;19;20475;-57
2023/10/28 07:56:48;;;;;;;1.88;0.55;;;;;;;29.52;37.13;96963.91;7397749;19;20011;-57
2023/10/28 07:59:14;;;;;;;0.38;0.38;;;;;;;31.10;35.77;96966.25;7399175;19;20031;-57
2023/10/28 08:01:41;;;;;;;0.10;0.10;;;;;;;30.93;35.71;96961.59;7399657;19;20014;-57
2023/10/28 08:04:07;;;;;;;0.10;0.10;;;;;;;31.33;35.72;96968.16;7396049;19;20407;-57
2023/10/28 08:06:34;;;;;;;0.20;0.20;;;;;;;31.17;35.62;96967.84;7396952;19;20078;-57
2023/10/28 08:09:04;;;;;;;0.57;0.35;;;;;;;31.21;35.61;96970.78;7395889;19;20386;-57
2023/10/28 08:11:31;;;;;;;0.30;0.30;;;;;;;31.56;35.27;96968.59;7397098;19;20018;-57
2023/10/28 08:13:57;;;;;;;0.20;0.20;;;;;;;31.55;35.00;96975.78;7398704;19;20049;-57
2023/10/28 08:16:24;;;;;;;0.17;0.17;;;;;;;31.87;34.56;96976.34;7394765;19;20018;-57
2023/10/28 08:18:50;;;;;;;0.68;0.45;;;;;;;31.28;35.21;96972.38;7397069;19;20019;-57
2023/10/28 08:21:17;;;;;;;1.05;0.80;;;;;;;31.65;34.95;96968.06;7396384;19;20006;-57
2023/10/28 08:23:43;;;;;;;1.55;0.57;;;;;;;30.99;35.44;96975.38;7395812;19;20066;-57
2023/10/28 08:26:10;;;;;;;6.65;0.82;;;;;;;30.33;36.49;96978.22;7399581;19;20018;-57
2023/10/28 08:28:37;;;;;;;0.85;0.20;;;;;;;30.66;36.45;96973.94;7395297;19;20015;-57
2023/10/28 08:31:10;;;;;;;0.68;0.68;;;;;;;30.19;36.49;96980.00;7396519;19;20062;-57
2023/10/28 08:33:37;;;;;;;3.40;1.35;;;;;;;29.71;37.11;96983.09;7395894;19;20078;-57
2023/10/28 08:36:04;;;;;;;0.63;0.30;;;;;;;31.39;35.59;96981.91;7398575;19;20717;-57
2023/10/28 08:38:32;;;;;;;0.82;0.73;;;;;;;31.35;35.04;96981.84;7395333;19;20015;-57
2023/10/28 08:41:03;;;;;;;2.10;0.40;;;;;;;32.47;34.61;96973.72;7395861;19;20006;-57
2023/10/28 08:43:33;;;;;;;0.20;0.15;;;;;;;31.73;35.11;96973.94;7395489;19;20012;-57
2023/10/28 08:46:01;;;;;;;0.47;0.47;;;;;;;30.49;36.69;96977.84;7399428;19;20030;-58
2023/10/28 08:48:27;;;;;;;0.30;0.30;;;;;;;30.12;37.21;96967.63;7395470;19;20043;-57
2023/10/28 08:50:59;;;;;;;0.30;0.30;;;;;;;30.36;37.22;96971.09;7395547;19;20034;-57
2023/10/28 08:53:25;;;;;;;0.45;0.40;;;;;;;31.16;36.55;96975.03;7397171;19;20014;-57
2023/10/28 08:55:52;;;;;;;0.65;0.65;;;;;;;31.50;35.65;96974.97;7398623;19;20086;-57
2023/10/28 08:58:19;;;;;;;0.10;0.08;;;;;;;32.16;35.42;96972.56;7394102;19;20015;-57
2023/10/28 09:00:50;;;;;;;1.02;0.22;;;;;;;32.97;34.86;96970.84;7391526;19;20369;-57
2023/10/28 09:03:22;;;;;;;3.63;0.60;;;;;;;33.37;33.84;96969.22;7394725;19;20011;-57
2023/10/28 09:05:52;;;;;;;0.10;0.00;;;;;;;33.65;34.03;96973.84;7397446;19;20403;-57
2023/10/28 09:08:19;;;;;;;0.20;0.20;;;;;;;33.49;33.73;96980.88;7395472;19;20021;-57
2023/10/28 09:10:46;;;;;;;0.40;0.20;;;;;;;33.28;33.64;96987.13;7394110;19;20481;-57
2023/10/28 09:13:13;;;;;;;0.88;0.17;;;;;;;33.82;33.53;96992.78;7394478;19;20010;-57
2023/10/28 09:15:40;;;;;;;0.93;0.70;;;;;;;34.04;33.12;96987.97;7396002;19;20038;-57
2023/10/28 09:18:06;;;;;;;0.10;0.10;;;;;;;32.56;34.73;96990.47;7394228;19;20021;-57
2023/10/28 09:20:37;;;;;;;3.20;1.15;;;;;;;32.44;34.75;96995.31;7389835;19;20014;-56
2023/10/28 09:23:03;;;;;;;0.57;0.22;;;;;;;32.75;34.78;96977.78;7394809;19;20010;-57
2023/10/28 09:25:30;;;;;;;1.90;0.82;;;;;;;33.05;34.48;96979.63;7395982;19;20408;-57
2023/10/28 09:27:56;;;;;;;2.08;0.45;;;;;;;32.94;34.63;96978.03;7392520;19;20014;-56
2023/10/28 09:30:23;;;;;;;0.63;0.30;;;;;;;33.21;34.72;96974.06;7392406;19;20044;-57
2023/10/28 09:32:52;;;;;;;1.65;1.05;;;;;;;32.87;34.77;96977.97;7392614;19;20462;-57
2023/10/28 09:35:19;;;;;;;0.43;0.40;;;;;;;32.48;35.70;96987.50;7394170;19;20463;-56
2023/10/28 09:37:45;;;;;;;2.65;0.75;;;;;;;32.35;36.25;96982.94;7398767;19;20010;-57
2023/10/28 09:40:12;;;;;;;0.20;0.20;;;;;;;32.01;36.18;96976.63;7392436;19;20018;-57
2023/10/28 09:42:39;;;;;;;2.85;0.52;;;;;;;31.03;36.32;96981.94;7393274;19;20011;-56
2023/10/28 09:45:08;;;;;;;1.20;0.50;;;;;;;31.56;36.41;96971.47;7395614;19;20356;-57
2023/10/28 09:47:51;;;;;;;1.15;0.63;;;;;;;32.05;36.28;96976.69;7392295;19;20018;-57
2023/10/28 09:50:21;;;;;;;0.10;0.10;;;;;;;32.28;35.65;96983.53;7393862;19;20351;-56
2023/10/28 09:52:51;;;;;;;0.20;0.20;;;;;;;32.69;35.24;96992.09;7393303;19;20336;-57
2023/10/28 09:55:36;;;;;;;0.10;0.10;;;;;;;30.70;37.01;96991.25;7395154;19;20463;-57
2023/10/28 09:58:09;;;;;;;1.08;0.75;;;;;;;29.75;38.07;96982.47;7394249;19;20025;-56
2023/10/28 10:00:38;;;;;;;1.05;0.10;;;;;;;29.99;38.24;96992.41;7390718;19;20019;-57
2023/10/28 10:03:25;;;;;;;0.40;0.28;;;;;;;30.01;38.14;96988.16;7393372;19;20002;-57
2023/10/28 10:05:53;;;;;;;0.20;0.10;;;;;;;30.05;38.33;96988.25;7395819;19;20013;-57
2023/10/28 10:08:23;;;;;;;1.20;0.32;;;;;;;30.13;38.82;96994.19;7393167;19;20007;-56
2023/10/28 10:10:56;;;;;;;0.30;0.30;;;;;;;33.76;34.78;96984.78;7392940;19;20478;-57
2023/10/28 10:13:23;;;;;;;0.45;0.45;;;;;;;33.69;34.78;96979.66;7393762;19;20014;-56
2023/10/28 10:16:07;;;;;;;0.32;0.32;;;;;;;31.91;36.54;96985.06;7395886;19;20070;-57
2023/10/28 10:18:39;;;;;;;0.30;0.30;;;;;;;32.29;36.46;96985.00;7391870;19;20015;-56
2023/10/28 10:21:12;;;;;;;0.22;0.22;;;;;;;30.81;38.37;96990.06;7392394;19;20010;-57
2023/10/28 10:23:49;;;;;;;1.02;0.28;;;;;;;30.51;38.25;96992.25;7392655;19;20018;-56
2023/10/28 10:26:22;;;;;;;4.05;0.60;;;;;;;30.04;38.29;96989.66;7396277;19;20062;-57
2023/10/28 10:28:48;;;;;;;0.85;0.28;;;;;;;30.46;38.18;96982.09;7393522;19;20021;-57
2023/10/28 10:31:19;;;;;;;0.17;0.17;;;;;;;31.15;37.68;96982.19;7394113;19;20018;-56
2023/10/28 10:33:45;;;;;;;5.07;0.80;;;;;;;31.53;37.22;96984.38;7399447;19;20018;-56
2023/10/28 10:36:25;;;;;;;5.15;0.40;;;;;;;31.27;37.34;96982.41;7403108;19;20012;-56
2023/10/28 10:38:52;;;;;;;0.40;0.32;;;;;;;30.92;37.92;96991.75;7395893;19;20010;-57
2023/10/28 10:41:28;;;;;;;0.85;0.85;;;;;;;31.57;37.30;96990.19;7400187;19;20019;-57
2023/10/28 10:43:55;;;;;;;0.20;0.20;;;;;;;30.81;38.26;96990.06;7400888;19;20015;-56
2023/10/28 10:46:21;;;;;;;0.43;0.43;;;;;;;30.47;38.76;96992.16;7403729;19;20014;-57
2023/10/28 10:48:47;;;;;;;0.47;0.22;;;;;;;29.50;39.47;96989.69;7400211;19;20043;-57
2023/10/28 10:51:15;;;;;;;0.95;0.70;;;;;;;30.45;39.16;96983.50;7399515;19;20035;-56
2023/10/28 10:53:44;;;;;;;0.35;0.30;;;;;;;29.71;39.72;96991.69;7401687;19;20027;-56
2023/10/28 10:56:20;;;;;;;0.13;0.13;;;;;;;29.31;40.07;96987.72;7403541;19;20028;-56
2023/10/28 10:58:47;;;;;;;0.47;0.47;;;;;;;29.37;40.06;96992.91;7398408;19;20010;-56
2023/10/28 11:01:13;;;;;;;0.17;0.17;;;;;;;29.81;39.58;96985.50;7399135;19;20011;-57
2023/10/28 11:03:40;;;;;;;0.38;0.30;;;;;;;29.16;40.36;96997.34;7398580;19;20033;-56
2023/10/28 11:06:07;;;;;;;0.40;0.30;;;;;;;29.45;40.17;96993.88;7402590;19;20010;-56
2023/10/28 11:08:34;;;;;;;0.10;0.10;;;;;;;29.57;40.46;96996.31;7398191;19;20018;-57
2023/10/28 11:11:03;;;;;;;0.50;0.35;;;;;;;29.47;40.61;96985.31;7398372;19;20011;-56
2023/10/28 11:13:29;;;;;;;0.95;0.88;;;;;;;29.92;40.08;96982.22;7398654;19;20039;-57
2023/10/28 11:15:56;;;;;;;0.10;0.10;;;;;;;29.64;40.39;96975.72;7401256;19;20035;-57
2023/10/28 11:18:23;;;;;;;3.85;0.70;;;;;;;29.66;40.55;96967.16;7398100;19;20011;-57
2023/10/28 11:20:50;;;;;;;2.95;1.02;;;;;;;29.54;40.53;96969.72;7395242;19;20054;-56
2023/10/28 11:23:17;;;;;;;0.20;0.15;;;;;;;29.45;41.47;96970.94;7398036;19;20011;-56
2023/10/28 11:25:48;;;;;;;0.90;0.63;;;;;;;29.88;40.72;96967.78;7397605;19;20006;-57
2023/10/28 11:28:14;;;;;;;2.15;0.73;;;;;;;29.82;40.70;96969.75;7402439;19;20014;-57
2023/10/28 11:30:52;;;;;;;0.20;0.20;;;;;;;31.01;39.32;96970.41;7398176;19;20376;-57
2023/10/28 11:33:19;;;;;;;0.43;0.40;;;;;;;30.61;39.48;96960.88;7397933;19;20022;-57
2023/10/28 11:35:49;;;;;;;0.45;0.45;;;;;;;32.07;37.75;96956.56;7397622;19;20082;-57